createdAt,value
2023-04-18T00:03:06.718Z,74.8418
2023-04-18T00:08:05.878Z,74.70605
2023-04-18T00:13:06.163Z,74.37793
2023-04-18T00:18:08.371Z,73.96094
2023-04-18T00:23:06.317Z,73.90527
2023-04-18T00:28:06.112Z,74.1416
2023-04-18T00:33:06.953Z,73.66797
2023-04-18T00:38:06.294Z,73.56641
2023-04-18T00:43:08.613Z,73.23438
2023-04-18T00:48:06.225Z,73.34277
2023-04-18T00:53:06.584Z,73.0791
2023-04-18T00:58:09.001Z,72.38867
2023-04-18T01:03:08.790Z,72.52051
2023-04-18T01:08:09.599Z,72.47363
2023-04-18T01:13:19.613Z,72.68652
2023-04-18T01:18:07.641Z,72.5918
2023-04-18T01:23:07.838Z,72.21191
2023-04-18T01:28:07.983Z,72.03906
2023-04-18T01:33:06.886Z,72.16309
2023-04-18T01:38:11.639Z,72.14648
2023-04-18T01:43:06.280Z,71.82324
2023-04-18T01:48:06.805Z,71.84375
2023-04-18T01:53:06.136Z,71.81934
2023-04-18T01:58:06.350Z,72.13086
2023-04-18T02:03:06.305Z,72.03906
2023-04-18T02:08:06.184Z,71.8916
2023-04-18T02:13:06.929Z,71.74414
2023-04-18T02:18:06.899Z,71.93555
2023-04-18T02:23:09.032Z,71.81641
2023-04-18T02:28:06.263Z,72.07715
2023-04-18T02:33:16.485Z,72.10449
2023-04-18T02:38:06.470Z,72.21875
2023-04-18T02:43:06.309Z,72.44531
2023-04-18T02:48:07.934Z,72.81445
2023-04-18T02:53:06.580Z,72.6748
2023-04-18T02:58:06.497Z,72.80273
2023-04-18T03:03:08.491Z,72.84863
2023-04-18T03:08:11.054Z,72.87402
2023-04-18T03:13:05.964Z,72.79102
2023-04-18T03:18:06.460Z,72.60254
2023-04-18T03:23:10.914Z,72.91895
2023-04-18T03:28:05.935Z,72.83594
2023-04-18T03:33:17.331Z,72.93262
2023-04-18T03:38:09.397Z,72.79102
2023-04-18T03:43:09.316Z,72.94336
2023-04-18T03:48:06.543Z,73.21289
2023-04-18T03:53:08.094Z,73.30273
2023-04-18T03:58:08.849Z,73.44434
2023-04-18T04:03:07.220Z,73.91211
2023-04-18T04:08:10.285Z,73.91797
2023-04-18T04:13:06.422Z,73.9668
2023-04-18T04:18:06.555Z,73.80078
2023-04-18T04:23:13.757Z,74.03516
2023-04-18T04:28:06.800Z,74.09375
2023-04-18T04:33:09.892Z,74.32422
2023-04-18T04:38:13.374Z,74.23438
2023-04-18T04:43:06.969Z,74.24902
2023-04-18T04:48:09.544Z,74.40137
2023-04-18T04:53:06.730Z,74.14355
2023-04-18T04:58:09.633Z,74.4248
2023-04-18T05:03:09.173Z,74.44043
2023-04-18T05:08:10.492Z,74.42773
2023-04-18T05:13:10.011Z,74.51367
2023-04-18T05:18:09.209Z,74.67383
2023-04-18T05:23:07.013Z,74.48535
2023-04-18T05:28:08.178Z,74.81055
2023-04-18T05:33:07.830Z,74.45703
2023-04-18T05:38:11.204Z,74.8291
2023-04-18T05:43:06.466Z,74.80762
2023-04-18T05:48:07.240Z,74.66602
2023-04-18T05:53:08.606Z,74.62207
2023-04-18T05:58:06.330Z,74.74121
2023-04-18T06:03:08.548Z,74.74023
2023-04-18T06:08:20.310Z,74.62695
2023-04-18T06:13:10.845Z,74.62793
2023-04-18T06:18:06.109Z,74.78223
2023-04-18T06:23:08.720Z,74.53711
2023-04-18T06:28:06.055Z,74.75586
2023-04-18T06:33:13.462Z,74.47754
2023-04-18T06:38:15.599Z,74.68945
2023-04-18T06:43:06.377Z,74.39551
2023-04-18T06:48:10.708Z,74.53516
2023-04-18T06:53:06.082Z,74.30664
2023-04-18T06:58:09.034Z,74.33008
2023-04-18T07:03:13.358Z,73.54102
2023-04-18T07:08:14.098Z,73.77344
2023-04-18T07:13:06.413Z,73.71387
2023-04-18T07:18:06.406Z,73.79102
2023-04-18T07:23:06.454Z,73.71191
2023-04-18T07:28:08.991Z,73.80176
2023-04-18T07:33:06.703Z,73.48633
2023-04-18T07:38:18.955Z,72.9873
2023-04-18T07:43:05.937Z,72.7002
2023-04-18T07:48:08.992Z,72.77344
2023-04-18T07:53:06.207Z,72.66113
2023-04-18T07:58:08.968Z,72.36426
2023-04-18T08:03:06.772Z,72.11133
2023-04-18T08:08:06.650Z,72.15625
2023-04-18T08:13:10.215Z,72.2627
2023-04-18T08:18:06.543Z,72.23535
2023-04-18T08:23:09.437Z,70.34863
2023-04-18T08:28:08.860Z,68.52246
2023-04-18T08:33:08.577Z,66.94434
2023-04-18T08:38:07.740Z,67.06836
2023-04-18T08:43:07.927Z,66.88867
2023-04-18T08:48:06.193Z,65.86035
2023-04-18T08:53:06.233Z,64.96289
2023-04-18T08:58:07.421Z,64.85352
2023-04-18T09:03:07.164Z,63.60059
2023-04-18T09:08:16.244Z,63.2959
2023-04-18T09:13:10.317Z,63.3623
2023-04-18T09:18:06.804Z,63.99805
2023-04-18T09:23:19.465Z,63.41602
2023-04-18T09:28:06.808Z,64.23047
2023-04-18T09:33:10.788Z,64.20215
2023-04-18T09:38:06.785Z,63.06543
2023-04-18T09:43:16.339Z,61.31152
2023-04-18T09:48:06.209Z,61.48242
2023-04-18T09:53:13.653Z,60.86328
2023-04-18T09:58:09.116Z,61.27344
2023-04-18T10:03:10.173Z,62.64453
2023-04-18T10:08:11.380Z,62.47656
2023-04-18T10:13:08.164Z,61.57324
2023-04-18T10:18:09.573Z,62.16992
2023-04-18T10:23:16.352Z,62.87012
2023-04-18T10:28:06.952Z,62.44629
2023-04-18T10:33:25.882Z,61.79297
2023-04-18T10:38:07.200Z,61.75977
2023-04-18T10:43:07.412Z,62.50488
2023-04-18T10:48:17.478Z,62.33984
2023-04-18T10:53:10.406Z,62.03418
2023-04-18T10:58:07.097Z,62.25098
2023-04-18T11:03:09.391Z,61.99316
2023-04-18T11:08:24.885Z,61.29883
2023-04-18T11:13:12.517Z,60.29395
2023-04-18T11:18:10.521Z,57.94043
2023-04-18T11:23:08.436Z,60.07422
2023-04-18T11:36:00.431Z,60.94238
2023-04-18T11:50:15.337Z,60.20313
2023-04-18T11:54:46.556Z,60.41992
2023-04-18T11:59:51.654Z,60.5293
2023-04-18T12:05:09.284Z,60.54395
2023-04-18T12:10:06.482Z,61.36914
2023-04-18T12:29:30.033Z,60.23438
2023-04-18T12:34:05.017Z,58.6582
2023-04-18T12:39:06.183Z,59.82422
2023-04-18T12:44:04.805Z,60.08301
2023-04-18T12:49:06.219Z,59.28516
2023-04-18T12:54:04.972Z,59.40723
2023-04-18T12:59:07.101Z,60.03809
2023-04-18T13:04:12.238Z,59.64648
2023-04-18T13:09:04.947Z,60.23047
2023-04-18T13:14:06.240Z,60.39844
2023-04-18T13:19:05.631Z,59.38281
2023-04-18T13:24:05.281Z,58.25391
2023-04-18T13:29:05.347Z,59.7002
2023-04-18T13:34:07.977Z,59.72363
2023-04-18T13:39:05.239Z,58.56543
2023-04-18T13:44:04.875Z,58.04102
2023-04-18T13:49:05.009Z,58.95605
2023-04-18T13:54:04.849Z,58.58301
2023-04-18T13:59:04.984Z,59.04785
2023-04-18T14:04:08.032Z,58.87695
2023-04-18T14:09:05.489Z,59.86719
2023-04-18T14:14:04.811Z,59.26074
2023-04-18T14:19:05.242Z,58.35059
2023-04-18T14:24:04.922Z,59.65918
2023-04-18T14:29:05.892Z,59.13574
2023-04-18T14:34:05.617Z,59.44531
2023-04-18T14:39:05.743Z,59.23828
2023-04-18T14:44:04.973Z,59.3418
2023-04-18T14:49:05.015Z,58.76172
2023-04-18T14:54:04.997Z,58.48535
2023-04-18T14:59:05.893Z,58.40332
2023-04-18T15:04:08.515Z,57.51953
2023-04-18T15:09:10.532Z,57.15625
2023-04-18T15:14:04.749Z,57.55273
2023-04-18T15:19:05.019Z,56.79395
2023-04-18T15:24:04.892Z,57.94238
2023-04-18T15:29:05.255Z,57.66504
2023-04-18T15:34:04.952Z,57.83301
2023-04-18T15:39:09.274Z,57.50293
2023-04-18T15:44:07.225Z,57.46094
2023-04-18T15:49:05.262Z,56.61719
2023-04-18T15:54:04.749Z,56.4082
2023-04-18T15:59:08.632Z,57.21973
2023-04-18T16:04:04.797Z,56.99902
2023-04-18T16:09:06.812Z,56.68262
2023-04-18T16:14:04.796Z,56.92188
2023-04-18T16:19:06.725Z,57.60059
2023-04-18T16:24:04.859Z,57.53027
2023-04-18T16:29:06.166Z,58.30664
2023-04-18T16:34:15.616Z,56.76855
2023-04-18T16:39:05.983Z,57.38574
2023-04-18T16:44:04.893Z,57.44238
2023-04-18T16:49:05.175Z,56.82227
2023-04-18T16:54:05.061Z,56.44727
2023-04-18T16:59:07.379Z,57.38184
2023-04-18T17:04:07.699Z,57.26074
2023-04-18T17:09:17.126Z,57.38672
2023-04-18T17:14:08.933Z,57.28613
2023-04-18T17:19:04.830Z,57.66211
2023-04-18T17:24:06.710Z,58.1875
2023-04-18T17:29:04.973Z,58.77051
2023-04-18T17:34:05.037Z,60.0293
2023-04-18T17:39:17.861Z,60.42578
2023-04-18T17:44:04.847Z,59.55859
2023-04-18T17:49:05.078Z,60.16895
2023-04-18T17:54:05.368Z,59.87891
2023-04-18T17:59:05.236Z,60.05957
2023-04-18T18:04:04.960Z,59.91406
2023-04-18T18:09:13.404Z,60.50586
2023-04-18T18:14:04.853Z,60.31543
2023-04-18T18:19:07.879Z,60.51465
2023-04-18T18:24:04.790Z,60.9043
2023-04-18T18:29:09.357Z,61.83398
2023-04-18T18:34:04.937Z,61.33398
2023-04-18T18:39:14.573Z,61.43848
2023-04-18T18:44:04.686Z,61.80664
2023-04-18T18:49:04.948Z,62.62402
2023-04-18T18:54:04.803Z,61.82129
2023-04-18T18:59:04.781Z,62.17285
2023-04-18T19:04:05.359Z,62.46289
2023-04-18T19:09:05.301Z,63.15723
2023-04-18T19:14:04.798Z,63.91016
2023-04-18T19:19:04.925Z,63.29004
2023-04-18T19:24:04.842Z,63.16895
2023-04-18T19:29:04.794Z,63.38867
2023-04-18T19:34:05.079Z,63.44434
2023-04-18T19:39:04.904Z,63.71875
2023-04-18T19:44:07.104Z,63.83984
2023-04-18T19:49:06.547Z,64.04785
2023-04-18T19:54:04.936Z,64.02148
2023-04-18T19:59:06.097Z,64.5127
2023-04-18T20:04:05.018Z,64.83105
2023-04-18T20:09:05.711Z,64.88379
2023-04-18T20:14:05.097Z,65.24512
2023-04-18T20:19:05.714Z,64.92285
2023-04-18T20:24:05.857Z,65.32813
2023-04-18T20:29:06.048Z,65.46875
2023-04-18T20:34:09.925Z,65.58301
2023-04-18T20:39:06.210Z,65.95703
2023-04-18T20:44:08.601Z,66.05176
2023-04-18T20:49:04.819Z,66.61621
2023-04-18T20:54:07.803Z,66.4541
2023-04-18T20:59:04.789Z,66.68457
2023-04-18T21:04:05.098Z,66.7041
2023-04-18T21:09:09.155Z,67.00684
2023-04-18T21:14:06.640Z,66.95215
2023-04-18T21:19:04.931Z,67.17676
2023-04-18T21:24:05.855Z,67.33984
2023-04-18T21:29:07.810Z,67.46875
2023-04-18T21:34:05.550Z,67.19043
2023-04-18T21:39:05.279Z,67.6123
2023-04-18T21:44:06.113Z,67.66602
2023-04-18T21:49:04.958Z,67.8916
2023-04-18T21:54:04.954Z,67.96973
2023-04-18T21:59:04.825Z,68.22461
2023-04-18T22:04:05.467Z,68.32813
2023-04-18T22:09:11.413Z,68.4248
2023-04-18T22:14:05.901Z,68.60742
2023-04-18T22:19:06.094Z,68.65918
2023-04-18T22:24:04.701Z,68.68848
2023-04-18T22:29:06.408Z,68.70117
2023-04-18T22:34:07.140Z,68.75977
2023-04-18T22:39:09.596Z,69.11719
2023-04-18T22:44:04.771Z,68.88086
2023-04-18T22:49:05.517Z,69.00879
2023-04-18T22:54:04.571Z,69.12305
2023-04-18T22:59:04.661Z,69.62207
2023-04-18T23:04:05.093Z,69.25098
2023-04-18T23:09:04.814Z,69.44141
2023-04-18T23:14:07.658Z,69.37402
2023-04-18T23:19:04.783Z,69.77539
2023-04-18T23:24:04.750Z,70.12207
2023-04-18T23:29:04.631Z,70.04102
2023-04-18T23:34:04.661Z,70.1123
2023-04-18T23:39:04.745Z,70.05371
2023-04-18T23:44:04.728Z,70.31055
2023-04-18T23:49:04.796Z,70.35059
2023-04-18T23:54:07.215Z,70.44824
2023-04-18T23:59:07.279Z,70.65137
